Keene, California
Current Conditions -  °F | °C
As of 3:15 AM on Tuesday 21 Oct 2014 (Local Time) from KMHV Reporting Station
Clear Clear  
Wind Chill: 59°   Ceiling: Unl
Heat Index: 59°   Visibility: 10mi
Dew Point: 48°   Wind: 17mph
Humidity: 67%   Direction: 270°W
Pressure: 29.95"   Gusts: 25mph
Location:  35.22°N, 118.56°W
Report Text: KMHV 211015Z AUTO 27015G22KT 10SM CLR 15/09 A2995 RMK AO1
Loading
Personal Weather Stations






























Interactive Weather Map
Tropical Storm Tracking
New forecast layout! Learn more

10-Day Weather Forecast

Advertisements
Track Severe Weather on mobile